sensor_id;sensor_type;location;lat;lon;timestamp;pressure;altitude;pressure_sealevel;temperature;humidity
15817;BME280;8009;50.070;8.232;2022-07-17T00:00:02;100897.16;;;17.99;43.29
15817;BME280;8009;50.070;8.232;2022-07-17T00:02:31;100909.19;;;17.77;44.21
15817;BME280;8009;50.070;8.232;2022-07-17T00:05:02;100904.75;;;17.76;44.55
15817;BME280;8009;50.070;8.232;2022-07-17T00:07:30;100900.91;;;17.98;43.44
15817;BME280;8009;50.070;8.232;2022-07-17T00:09:59;100912.53;;;17.40;44.71
15817;BME280;8009;50.070;8.232;2022-07-17T00:12:27;100910.72;;;17.70;44.63
15817;BME280;8009;50.070;8.232;2022-07-17T00:14:56;100912.91;;;17.36;45.26
15817;BME280;8009;50.070;8.232;2022-07-17T00:17:24;100918.00;;;17.40;45.12
15817;BME280;8009;50.070;8.232;2022-07-17T00:19:53;100919.56;;;17.43;44.59
15817;BME280;8009;50.070;8.232;2022-07-17T00:22:24;100910.69;;;17.20;45.43
15817;BME280;8009;50.070;8.232;2022-07-17T00:24:53;100903.88;;;17.35;45.42
15817;BME280;8009;50.070;8.232;2022-07-17T00:27:21;100898.66;;;17.22;45.42
15817;BME280;8009;50.070;8.232;2022-07-17T00:29:50;100905.38;;;17.49;44.92
15817;BME280;8009;50.070;8.232;2022-07-17T00:32:19;100896.97;;;17.31;45.10
15817;BME280;8009;50.070;8.232;2022-07-17T00:34:48;100902.38;;;17.52;44.66
15817;BME280;8009;50.070;8.232;2022-07-17T00:37:17;100896.88;;;17.12;45.68
15817;BME280;8009;50.070;8.232;2022-07-17T00:39:48;100896.38;;;16.97;45.77
15817;BME280;8009;50.070;8.232;2022-07-17T00:42:19;100908.63;;;16.81;46.58
15817;BME280;8009;50.070;8.232;2022-07-17T00:44:48;100911.66;;;17.09;45.67
15817;BME280;8009;50.070;8.232;2022-07-17T00:47:19;100909.91;;;17.29;45.13
15817;BME280;8009;50.070;8.232;2022-07-17T00:49:48;100913.59;;;17.28;45.18
15817;BME280;8009;50.070;8.232;2022-07-17T00:52:18;100917.78;;;17.32;45.24
15817;BME280;8009;50.070;8.232;2022-07-17T00:54:50;100917.06;;;16.99;45.89
15817;BME280;8009;50.070;8.232;2022-07-17T00:57:20;100919.63;;;16.91;45.84
15817;BME280;8009;50.070;8.232;2022-07-17T00:59:48;100919.97;;;17.08;45.59
15817;BME280;8009;50.070;8.232;2022-07-17T01:02:17;100912.75;;;16.97;45.51
15817;BME280;8009;50.070;8.232;2022-07-17T01:04:46;100908.56;;;16.72;46.67
15817;BME280;8009;50.070;8.232;2022-07-17T01:07:14;100905.19;;;16.79;46.31
15817;BME280;8009;50.070;8.232;2022-07-17T01:09:44;100895.19;;;16.69;46.17
15817;BME280;8009;50.070;8.232;2022-07-17T01:12:16;100897.66;;;16.93;45.91
15817;BME280;8009;50.070;8.232;2022-07-17T01:14:47;100894.16;;;17.12;45.82
15817;BME280;8009;50.070;8.232;2022-07-17T01:17:17;100895.00;;;16.81;46.08
15817;BME280;8009;50.070;8.232;2022-07-17T01:19:45;100900.59;;;16.80;46.50
15817;BME280;8009;50.070;8.232;2022-07-17T01:22:17;100894.75;;;16.31;47.44
15817;BME280;8009;50.070;8.232;2022-07-17T01:24:46;100890.81;;;16.77;46.53
15817;BME280;8009;50.070;8.232;2022-07-17T01:27:15;100903.66;;;16.87;45.98
15817;BME280;8009;50.070;8.232;2022-07-17T01:29:43;100905.03;;;16.81;46.42
15817;BME280;8009;50.070;8.232;2022-07-17T01:32:12;100899.75;;;16.26;47.31
15817;BME280;8009;50.070;8.232;2022-07-17T01:34:40;100896.56;;;16.63;46.66
15817;BME280;8009;50.070;8.232;2022-07-17T01:37:09;100896.88;;;16.81;45.79
15817;BME280;8009;50.070;8.232;2022-07-17T01:39:39;100887.72;;;16.50;46.86
15817;BME280;8009;50.070;8.232;2022-07-17T01:42:25;100894.19;;;16.49;46.93
15817;BME280;8009;50.070;8.232;2022-07-17T01:44:54;100905.75;;;16.41;47.28
15817;BME280;8009;50.070;8.232;2022-07-17T01:47:23;100900.19;;;16.64;46.43
15817;BME280;8009;50.070;8.232;2022-07-17T01:49:54;100904.00;;;16.19;47.45
15817;BME280;8009;50.070;8.232;2022-07-17T01:52:24;100907.06;;;16.47;46.83
15817;BME280;8009;50.070;8.232;2022-07-17T01:54:55;100897.53;;;16.52;46.72
15817;BME280;8009;50.070;8.232;2022-07-17T01:57:24;100903.84;;;16.53;46.36
15817;BME280;8009;50.070;8.232;2022-07-17T01:59:52;100911.66;;;16.46;47.11
15817;BME280;8009;50.070;8.232;2022-07-17T02:02:21;100906.41;;;16.54;46.60
15817;BME280;8009;50.070;8.232;2022-07-17T02:04:49;100914.53;;;16.13;47.73
15817;BME280;8009;50.070;8.232;2022-07-17T02:07:17;100907.94;;;16.26;47.45
15817;BME280;8009;50.070;8.232;2022-07-17T02:09:46;100912.94;;;16.42;46.98
15817;BME280;8009;50.070;8.232;2022-07-17T02:12:17;100909.34;;;16.09;47.83
15817;BME280;8009;50.070;8.232;2022-07-17T02:14:45;100908.78;;;16.27;47.35
15817;BME280;8009;50.070;8.232;2022-07-17T02:17:14;100917.72;;;16.18;47.63
15817;BME280;8009;50.070;8.232;2022-07-17T02:19:42;100903.53;;;16.35;46.99
15817;BME280;8009;50.070;8.232;2022-07-17T02:22:11;100908.09;;;16.46;46.73
15817;BME280;8009;50.070;8.232;2022-07-17T02:24:39;100914.94;;;16.08;47.72
15817;BME280;8009;50.070;8.232;2022-07-17T02:27:07;100910.56;;;15.84;48.23
15817;BME280;8009;50.070;8.232;2022-07-17T02:29:38;100913.25;;;15.96;48.26
15817;BME280;8009;50.070;8.232;2022-07-17T02:32:07;100912.16;;;16.19;47.73
15817;BME280;8009;50.070;8.232;2022-07-17T02:34:35;100905.50;;;16.12;48.00
15817;BME280;8009;50.070;8.232;2022-07-17T02:37:03;100902.00;;;16.21;47.29
15817;BME280;8009;50.070;8.232;2022-07-17T02:39:32;100913.16;;;16.18;47.66
15817;BME280;8009;50.070;8.232;2022-07-17T02:42:00;100911.13;;;16.31;47.27
15817;BME280;8009;50.070;8.232;2022-07-17T02:44:28;100914.53;;;16.13;47.50
15817;BME280;8009;50.070;8.232;2022-07-17T02:47:01;100910.06;;;16.23;47.39
15817;BME280;8009;50.070;8.232;2022-07-17T02:49:30;100914.44;;;16.35;47.12
15817;BME280;8009;50.070;8.232;2022-07-17T02:51:58;100919.69;;;16.27;47.31
15817;BME280;8009;50.070;8.232;2022-07-17T02:54:26;100914.16;;;16.17;47.43
15817;BME280;8009;50.070;8.232;2022-07-17T02:56:55;100913.69;;;16.12;47.37
15817;BME280;8009;50.070;8.232;2022-07-17T02:59:23;100917.03;;;15.72;48.08
15817;BME280;8009;50.070;8.232;2022-07-17T03:01:51;100912.53;;;15.82;47.84
15817;BME280;8009;50.070;8.232;2022-07-17T03:04:22;100910.81;;;15.59;48.66
15817;BME280;8009;50.070;8.232;2022-07-17T03:06:51;100919.00;;;15.70;48.21
15817;BME280;8009;50.070;8.232;2022-07-17T03:09:19;100917.38;;;15.68;48.32
15817;BME280;8009;50.070;8.232;2022-07-17T03:11:48;100919.00;;;15.36;49.21
15817;BME280;8009;50.070;8.232;2022-07-17T03:14:16;100911.34;;;15.42;49.43
15817;BME280;8009;50.070;8.232;2022-07-17T03:16:44;100904.66;;;15.68;48.59
15817;BME280;8009;50.070;8.232;2022-07-17T03:19:13;100907.84;;;15.62;48.88
15817;BME280;8009;50.070;8.232;2022-07-17T03:21:44;100910.34;;;15.76;48.52
15817;BME280;8009;50.070;8.232;2022-07-17T03:24:12;100913.03;;;15.88;48.14
15817;BME280;8009;50.070;8.232;2022-07-17T03:26:40;100901.41;;;15.52;48.70
15817;BME280;8009;50.070;8.232;2022-07-17T03:29:09;100895.91;;;15.97;47.83
15817;BME280;8009;50.070;8.232;2022-07-17T03:31:37;100904.81;;;15.99;47.79
15817;BME280;8009;50.070;8.232;2022-07-17T03:34:08;100904.53;;;15.70;48.55
15817;BME280;8009;50.070;8.232;2022-07-17T03:36:36;100903.75;;;15.79;48.38
15817;BME280;8009;50.070;8.232;2022-07-17T03:39:07;100904.53;;;15.36;49.38
15817;BME280;8009;50.070;8.232;2022-07-17T03:41:36;100909.09;;;15.47;49.16
15817;BME280;8009;50.070;8.232;2022-07-17T03:44:04;100900.47;;;15.30;49.37
15817;BME280;8009;50.070;8.232;2022-07-17T03:46:33;100904.44;;;15.04;50.08
15817;BME280;8009;50.070;8.232;2022-07-17T03:49:02;100911.31;;;15.53;48.76
15817;BME280;8009;50.070;8.232;2022-07-17T03:51:30;100910.34;;;15.54;48.95
15817;BME280;8009;50.070;8.232;2022-07-17T03:53:58;100913.06;;;15.76;48.42
15817;BME280;8009;50.070;8.232;2022-07-17T03:56:29;100908.09;;;15.59;48.60
15817;BME280;8009;50.070;8.232;2022-07-17T03:58:58;100909.16;;;15.90;48.28
15817;BME280;8009;50.070;8.232;2022-07-17T04:01:26;100908.97;;;15.48;49.26
15817;BME280;8009;50.070;8.232;2022-07-17T04:03:55;100909.59;;;15.41;49.43
15817;BME280;8009;50.070;8.232;2022-07-17T04:06:27;100912.19;;;15.65;48.49
15817;BME280;8009;50.070;8.232;2022-07-17T04:08:55;100913.28;;;15.62;48.70
15817;BME280;8009;50.070;8.232;2022-07-17T04:11:24;100919.38;;;15.77;48.58
15817;BME280;8009;50.070;8.232;2022-07-17T04:13:55;100908.84;;;15.83;48.17
15817;BME280;8009;50.070;8.232;2022-07-17T04:16:24;100911.28;;;15.64;48.69
15817;BME280;8009;50.070;8.232;2022-07-17T04:18:52;100911.63;;;15.93;48.31
15817;BME280;8009;50.070;8.232;2022-07-17T04:21:21;100919.19;;;15.90;48.09
15817;BME280;8009;50.070;8.232;2022-07-17T04:23:50;100920.38;;;15.53;49.29
15817;BME280;8009;50.070;8.232;2022-07-17T04:26:18;100921.91;;;15.90;48.80
15817;BME280;8009;50.070;8.232;2022-07-17T04:28:47;100927.41;;;15.33;50.00
15817;BME280;8009;50.070;8.232;2022-07-17T04:31:18;100925.44;;;15.47;49.77
15817;BME280;8009;50.070;8.232;2022-07-17T04:33:47;100926.16;;;15.49;49.84
15817;BME280;8009;50.070;8.232;2022-07-17T04:36:17;100925.44;;;15.58;49.55
15817;BME280;8009;50.070;8.232;2022-07-17T04:38:46;100930.50;;;15.63;49.95
15817;BME280;8009;50.070;8.232;2022-07-17T04:41:14;100930.63;;;15.72;49.62
15817;BME280;8009;50.070;8.232;2022-07-17T04:43:43;100934.47;;;15.70;49.47
15817;BME280;8009;50.070;8.232;2022-07-17T04:46:11;100937.56;;;15.76;49.85
15817;BME280;8009;50.070;8.232;2022-07-17T04:48:42;100939.75;;;15.82;49.88
15817;BME280;8009;50.070;8.232;2022-07-17T04:51:10;100930.88;;;15.69;50.27
15817;BME280;8009;50.070;8.232;2022-07-17T04:53:41;100930.56;;;15.95;49.27
15817;BME280;8009;50.070;8.232;2022-07-17T04:56:12;100922.97;;;16.42;48.41
15817;BME280;8009;50.070;8.232;2022-07-17T04:58:40;100932.41;;;15.94;49.81
15817;BME280;8009;50.070;8.232;2022-07-17T05:01:08;100939.06;;;16.13;49.32
15817;BME280;8009;50.070;8.232;2022-07-17T05:03:37;100936.59;;;16.09;49.92
15817;BME280;8009;50.070;8.232;2022-07-17T05:06:08;100941.94;;;16.11;49.77
15817;BME280;8009;50.070;8.232;2022-07-17T05:08:37;100942.41;;;16.48;49.29
15817;BME280;8009;50.070;8.232;2022-07-17T05:11:05;100946.03;;;16.38;49.38
15817;BME280;8009;50.070;8.232;2022-07-17T05:13:34;100949.53;;;16.81;48.76
15817;BME280;8009;50.070;8.232;2022-07-17T05:16:03;100951.06;;;16.95;48.42
15817;BME280;8009;50.070;8.232;2022-07-17T05:18:32;100953.28;;;16.80;48.48
15817;BME280;8009;50.070;8.232;2022-07-17T05:21:00;100946.41;;;17.07;47.96
15817;BME280;8009;50.070;8.232;2022-07-17T05:23:31;100955.31;;;17.09;48.17
15817;BME280;8009;50.070;8.232;2022-07-17T05:25:59;100956.13;;;17.21;46.84
15817;BME280;8009;50.070;8.232;2022-07-17T05:28:28;100959.06;;;17.39;46.78
15817;BME280;8009;50.070;8.232;2022-07-17T05:30:56;100966.88;;;17.53;47.07
15817;BME280;8009;50.070;8.232;2022-07-17T05:33:24;100976.53;;;17.57;47.26
15817;BME280;8009;50.070;8.232;2022-07-17T05:35:53;100974.56;;;17.69;47.05
15817;BME280;8009;50.070;8.232;2022-07-17T05:38:21;100973.97;;;17.65;46.73
15817;BME280;8009;50.070;8.232;2022-07-17T05:40:53;100975.22;;;17.82;46.51
15817;BME280;8009;50.070;8.232;2022-07-17T05:43:21;100979.53;;;17.85;46.79
15817;BME280;8009;50.070;8.232;2022-07-17T05:45:52;100978.97;;;17.91;46.24
15817;BME280;8009;50.070;8.232;2022-07-17T05:48:21;100974.34;;;17.82;46.20
15817;BME280;8009;50.070;8.232;2022-07-17T05:50:50;100974.13;;;18.14;44.79
15817;BME280;8009;50.070;8.232;2022-07-17T05:53:19;100975.53;;;17.98;45.38
15817;BME280;8009;50.070;8.232;2022-07-17T05:55:51;100973.00;;;18.26;44.75
15817;BME280;8009;50.070;8.232;2022-07-17T05:58:23;100966.25;;;18.30;45.98
15817;BME280;8009;50.070;8.232;2022-07-17T06:00:53;100968.25;;;18.38;43.77
15817;BME280;8009;50.070;8.232;2022-07-17T06:03:21;100959.22;;;18.47;43.63
15817;BME280;8009;50.070;8.232;2022-07-17T06:05:50;100956.88;;;18.62;43.38
15817;BME280;8009;50.070;8.232;2022-07-17T06:08:18;100962.50;;;18.70;42.27
15817;BME280;8009;50.070;8.232;2022-07-17T06:10:47;100963.25;;;18.72;43.21
15817;BME280;8009;50.070;8.232;2022-07-17T06:13:18;100958.63;;;18.82;41.95
15817;BME280;8009;50.070;8.232;2022-07-17T06:15:46;100965.53;;;18.77;40.09
15817;BME280;8009;50.070;8.232;2022-07-17T06:18:15;100958.75;;;18.90;40.61
15817;BME280;8009;50.070;8.232;2022-07-17T06:20:43;100961.91;;;19.05;41.04
15817;BME280;8009;50.070;8.232;2022-07-17T06:23:14;100965.22;;;18.99;42.27
15817;BME280;8009;50.070;8.232;2022-07-17T06:25:42;100965.91;;;19.11;40.09
15817;BME280;8009;50.070;8.232;2022-07-17T06:28:11;100969.50;;;19.11;41.49
15817;BME280;8009;50.070;8.232;2022-07-17T06:30:42;100963.63;;;19.16;40.00
15817;BME280;8009;50.070;8.232;2022-07-17T06:33:10;100967.63;;;19.21;40.34
15817;BME280;8009;50.070;8.232;2022-07-17T06:35:39;100965.75;;;19.22;39.21
15817;BME280;8009;50.070;8.232;2022-07-17T06:38:07;100965.72;;;19.32;40.04
15817;BME280;8009;50.070;8.232;2022-07-17T06:40:36;100964.13;;;19.39;40.22
15817;BME280;8009;50.070;8.232;2022-07-17T06:43:05;100963.19;;;19.58;39.49
15817;BME280;8009;50.070;8.232;2022-07-17T06:45:34;100954.88;;;19.77;37.70
15817;BME280;8009;50.070;8.232;2022-07-17T06:48:06;100964.00;;;19.95;37.52
15817;BME280;8009;50.070;8.232;2022-07-17T06:50:37;100964.88;;;19.68;38.50
15817;BME280;8009;50.070;8.232;2022-07-17T06:53:06;100959.09;;;19.71;37.73
15817;BME280;8009;50.070;8.232;2022-07-17T06:55:34;100969.25;;;19.89;36.95
15817;BME280;8009;50.070;8.232;2022-07-17T06:58:03;100963.59;;;19.90;37.27
15817;BME280;8009;50.070;8.232;2022-07-17T07:00:32;100957.72;;;19.85;37.66
15817;BME280;8009;50.070;8.232;2022-07-17T07:03:00;100963.47;;;19.92;38.34
15817;BME280;8009;50.070;8.232;2022-07-17T07:05:31;100958.81;;;20.38;37.36
15817;BME280;8009;50.070;8.232;2022-07-17T07:08:00;100962.91;;;20.52;36.92
15817;BME280;8009;50.070;8.232;2022-07-17T07:10:29;100967.31;;;20.17;37.72
15817;BME280;8009;50.070;8.232;2022-07-17T07:12:58;100960.81;;;20.18;38.02
15817;BME280;8009;50.070;8.232;2022-07-17T07:15:26;100968.38;;;20.34;37.12
15817;BME280;8009;50.070;8.232;2022-07-17T07:17:55;100980.59;;;20.39;37.33
15817;BME280;8009;50.070;8.232;2022-07-17T07:20:24;100969.94;;;20.36;37.67
15817;BME280;8009;50.070;8.232;2022-07-17T07:22:55;100975.72;;;20.33;38.05
15817;BME280;8009;50.070;8.232;2022-07-17T07:25:23;100975.75;;;20.51;38.79
15817;BME280;8009;50.070;8.232;2022-07-17T07:27:52;100979.47;;;20.32;37.67
15817;BME280;8009;50.070;8.232;2022-07-17T07:30:20;100970.47;;;20.40;37.74
15817;BME280;8009;50.070;8.232;2022-07-17T07:32:49;100974.31;;;20.47;37.17
15817;BME280;8009;50.070;8.232;2022-07-17T07:35:18;100966.84;;;20.49;36.76
15817;BME280;8009;50.070;8.232;2022-07-17T07:37:46;100973.88;;;20.52;37.07
15817;BME280;8009;50.070;8.232;2022-07-17T07:40:17;100971.69;;;20.73;36.64
15817;BME280;8009;50.070;8.232;2022-07-17T07:42:46;100960.63;;;20.65;36.90
15817;BME280;8009;50.070;8.232;2022-07-17T07:45:14;100963.06;;;20.50;36.40
15817;BME280;8009;50.070;8.232;2022-07-17T07:47:43;100961.09;;;20.78;35.78
15817;BME280;8009;50.070;8.232;2022-07-17T07:50:12;100959.66;;;20.92;35.86
15817;BME280;8009;50.070;8.232;2022-07-17T07:52:41;100951.78;;;20.97;35.97
15817;BME280;8009;50.070;8.232;2022-07-17T07:55:11;100942.16;;;20.93;35.65
15817;BME280;8009;50.070;8.232;2022-07-17T07:57:42;100948.78;;;21.08;35.94
15817;BME280;8009;50.070;8.232;2022-07-17T08:00:12;100954.19;;;21.18;36.18
15817;BME280;8009;50.070;8.232;2022-07-17T08:02:41;100948.19;;;21.23;37.19
15817;BME280;8009;50.070;8.232;2022-07-17T08:05:09;100958.13;;;21.41;37.09
15817;BME280;8009;50.070;8.232;2022-07-17T08:07:37;100952.81;;;21.48;37.54
15817;BME280;8009;50.070;8.232;2022-07-17T08:10:07;100947.72;;;21.53;43.78
15817;BME280;8009;50.070;8.232;2022-07-17T08:12:35;100942.91;;;21.55;39.37
15817;BME280;8009;50.070;8.232;2022-07-17T08:15:07;100937.22;;;21.49;50.47
15817;BME280;8009;50.070;8.232;2022-07-17T08:17:36;100929.53;;;21.60;36.90
15817;BME280;8009;50.070;8.232;2022-07-17T08:20:06;100925.50;;;21.81;35.07
15817;BME280;8009;50.070;8.232;2022-07-17T08:22:35;100924.44;;;21.82;34.43
15817;BME280;8009;50.070;8.232;2022-07-17T08:25:04;100926.38;;;21.98;37.60
15817;BME280;8009;50.070;8.232;2022-07-17T08:27:35;100921.03;;;21.88;40.71
15817;BME280;8009;50.070;8.232;2022-07-17T08:30:09;100923.78;;;21.88;34.41
15817;BME280;8009;50.070;8.232;2022-07-17T08:32:38;100930.94;;;22.15;34.75
15817;BME280;8009;50.070;8.232;2022-07-17T08:35:08;100919.81;;;22.66;43.61
15817;BME280;8009;50.070;8.232;2022-07-17T08:37:43;100919.25;;;23.19;32.24
15817;BME280;8009;50.070;8.232;2022-07-17T08:40:19;100909.47;;;23.95;31.56
15817;BME280;8009;50.070;8.232;2022-07-17T08:42:48;100910.47;;;24.02;30.52
15817;BME280;8009;50.070;8.232;2022-07-17T08:45:19;100906.41;;;24.67;31.16
15817;BME280;8009;50.070;8.232;2022-07-17T08:47:50;100907.28;;;24.83;29.60
15817;BME280;8009;50.070;8.232;2022-07-17T08:50:22;100905.69;;;25.11;31.41
15817;BME280;8009;50.070;8.232;2022-07-17T08:52:51;100908.78;;;24.70;33.34
15817;BME280;8009;50.070;8.232;2022-07-17T08:55:21;100903.31;;;24.85;31.70
15817;BME280;8009;50.070;8.232;2022-07-17T08:57:50;100914.59;;;24.75;29.04
15817;BME280;8009;50.070;8.232;2022-07-17T09:00:24;100924.16;;;24.73;29.53
15817;BME280;8009;50.070;8.232;2022-07-17T09:02:55;100917.19;;;24.77;28.35
15817;BME280;8009;50.070;8.232;2022-07-17T09:05:27;100909.97;;;24.91;29.65
15817;BME280;8009;50.070;8.232;2022-07-17T09:07:59;100914.72;;;25.79;34.32
15817;BME280;8009;50.070;8.232;2022-07-17T09:10:32;100909.69;;;25.53;27.60
15817;BME280;8009;50.070;8.232;2022-07-17T09:13:12;100917.66;;;25.33;27.01
15817;BME280;8009;50.070;8.232;2022-07-17T09:15:43;100913.94;;;25.85;31.46
15817;BME280;8009;50.070;8.232;2022-07-17T09:18:12;100913.16;;;26.28;26.44
15817;BME280;8009;50.070;8.232;2022-07-17T09:20:47;100904.59;;;25.86;26.93
15817;BME280;8009;50.070;8.232;2022-07-17T09:23:17;100899.75;;;26.46;25.10
15817;BME280;8009;50.070;8.232;2022-07-17T09:25:48;100899.63;;;26.82;25.47
15817;BME280;8009;50.070;8.232;2022-07-17T09:28:17;100903.91;;;26.57;30.71
15817;BME280;8009;50.070;8.232;2022-07-17T09:30:51;100911.16;;;26.58;25.20
15817;BME280;8009;50.070;8.232;2022-07-17T09:33:25;100909.38;;;26.50;25.56
15817;BME280;8009;50.070;8.232;2022-07-17T09:35:56;100921.00;;;25.88;25.81
15817;BME280;8009;50.070;8.232;2022-07-17T09:38:27;100921.56;;;26.56;25.05
15817;BME280;8009;50.070;8.232;2022-07-17T09:41:04;100908.94;;;26.74;23.82
15817;BME280;8009;50.070;8.232;2022-07-17T09:43:45;100905.19;;;26.39;25.69
15817;BME280;8009;50.070;8.232;2022-07-17T09:46:18;100908.53;;;26.78;23.98
15817;BME280;8009;50.070;8.232;2022-07-17T09:48:50;100906.00;;;26.76;25.46
15817;BME280;8009;50.070;8.232;2022-07-17T09:51:24;100903.66;;;27.08;24.64
15817;BME280;8009;50.070;8.232;2022-07-17T09:53:55;100901.63;;;27.16;27.05
15817;BME280;8009;50.070;8.232;2022-07-17T09:56:26;100893.72;;;27.13;25.46
15817;BME280;8009;50.070;8.232;2022-07-17T09:59:00;100882.81;;;27.88;25.10
15817;BME280;8009;50.070;8.232;2022-07-17T10:01:33;100886.19;;;26.79;24.66
15817;BME280;8009;50.070;8.232;2022-07-17T10:04:04;100888.66;;;26.67;24.17
15817;BME280;8009;50.070;8.232;2022-07-17T10:06:33;100882.81;;;27.12;23.89
15817;BME280;8009;50.070;8.232;2022-07-17T10:09:02;100884.53;;;27.13;26.23
15817;BME280;8009;50.070;8.232;2022-07-17T10:11:32;100887.72;;;27.79;23.92
15817;BME280;8009;50.070;8.232;2022-07-17T10:14:03;100896.97;;;27.58;27.48
15817;BME280;8009;50.070;8.232;2022-07-17T10:16:35;100900.88;;;27.29;23.28
15817;BME280;8009;50.070;8.232;2022-07-17T10:19:15;100902.47;;;27.86;25.05
15817;BME280;8009;50.070;8.232;2022-07-17T10:21:55;100907.28;;;27.71;23.50
15817;BME280;8009;50.070;8.232;2022-07-17T10:24:24;100912.44;;;27.39;22.62
15817;BME280;8009;50.070;8.232;2022-07-17T10:26:53;100905.75;;;27.68;23.67
15817;BME280;8009;50.070;8.232;2022-07-17T10:29:31;100901.19;;;27.48;23.14
15817;BME280;8009;50.070;8.232;2022-07-17T10:32:06;100907.59;;;27.48;22.82
15817;BME280;8009;50.070;8.232;2022-07-17T10:34:41;100903.22;;;27.67;22.76
15817;BME280;8009;50.070;8.232;2022-07-17T10:37:24;100905.13;;;27.66;23.06
15817;BME280;8009;50.070;8.232;2022-07-17T10:39:55;100906.28;;;27.79;22.28
15817;BME280;8009;50.070;8.232;2022-07-17T10:42:41;100902.34;;;28.21;28.96
15817;BME280;8009;50.070;8.232;2022-07-17T10:45:11;100893.81;;;27.68;22.46
15817;BME280;8009;50.070;8.232;2022-07-17T10:47:47;100892.03;;;27.54;21.51
15817;BME280;8009;50.070;8.232;2022-07-17T10:50:17;100890.72;;;27.50;22.66
15817;BME280;8009;50.070;8.232;2022-07-17T10:52:56;100892.59;;;27.77;22.46
15817;BME280;8009;50.070;8.232;2022-07-17T10:55:25;100887.91;;;27.78;23.28
15817;BME280;8009;50.070;8.232;2022-07-17T10:57:54;100892.97;;;27.67;23.32
15817;BME280;8009;50.070;8.232;2022-07-17T11:00:25;100892.56;;;27.70;23.73
15817;BME280;8009;50.070;8.232;2022-07-17T11:03:08;100884.34;;;28.04;27.43
15817;BME280;8009;50.070;8.232;2022-07-17T11:05:36;100890.63;;;27.71;23.59
15817;BME280;8009;50.070;8.232;2022-07-17T11:08:05;100894.41;;;27.57;28.99
15817;BME280;8009;50.070;8.232;2022-07-17T11:10:35;100887.84;;;27.30;23.00
15817;BME280;8009;50.070;8.232;2022-07-17T11:13:09;100895.16;;;27.37;36.76
15817;BME280;8009;50.070;8.232;2022-07-17T11:15:39;100883.03;;;27.93;31.62
15817;BME280;8009;50.070;8.232;2022-07-17T11:18:16;100877.50;;;27.93;30.52
15817;BME280;8009;50.070;8.232;2022-07-17T11:20:50;100884.38;;;27.62;23.34
15817;BME280;8009;50.070;8.232;2022-07-17T11:23:19;100880.03;;;27.40;23.17
15817;BME280;8009;50.070;8.232;2022-07-17T11:25:53;100876.94;;;27.28;23.54
15817;BME280;8009;50.070;8.232;2022-07-17T11:28:36;100874.69;;;27.38;24.55
15817;BME280;8009;50.070;8.232;2022-07-17T11:31:16;100871.53;;;27.48;35.26
15817;BME280;8009;50.070;8.232;2022-07-17T11:33:52;100877.63;;;27.30;25.08
15817;BME280;8009;50.070;8.232;2022-07-17T11:36:26;100869.97;;;27.32;24.00
15817;BME280;8009;50.070;8.232;2022-07-17T11:38:58;100872.38;;;26.86;24.47
15817;BME280;8009;50.070;8.232;2022-07-17T11:41:33;100863.44;;;27.12;31.05
15817;BME280;8009;50.070;8.232;2022-07-17T11:44:05;100870.22;;;27.09;25.23
15817;BME280;8009;50.070;8.232;2022-07-17T11:46:35;100873.03;;;27.16;35.14
15817;BME280;8009;50.070;8.232;2022-07-17T11:49:07;100871.53;;;27.55;33.59
15817;BME280;8009;50.070;8.232;2022-07-17T11:51:38;100866.84;;;27.49;24.84
15817;BME280;8009;50.070;8.232;2022-07-17T11:54:08;100866.38;;;26.82;26.44
15817;BME280;8009;50.070;8.232;2022-07-17T11:56:37;100859.38;;;26.86;25.91
15817;BME280;8009;50.070;8.232;2022-07-17T11:59:07;100862.66;;;26.96;25.33
15817;BME280;8009;50.070;8.232;2022-07-17T12:01:40;100856.47;;;27.23;27.59
15817;BME280;8009;50.070;8.232;2022-07-17T12:04:14;100855.22;;;27.25;31.18
15817;BME280;8009;50.070;8.232;2022-07-17T12:06:44;100856.53;;;27.08;29.21
15817;BME280;8009;50.070;8.232;2022-07-17T12:09:13;100844.56;;;27.01;28.12
15817;BME280;8009;50.070;8.232;2022-07-17T12:11:45;100850.63;;;26.83;30.31
15817;BME280;8009;50.070;8.232;2022-07-17T12:14:15;100851.97;;;26.93;25.75
15817;BME280;8009;50.070;8.232;2022-07-17T12:16:46;100849.19;;;26.93;25.02
15817;BME280;8009;50.070;8.232;2022-07-17T12:19:22;100843.44;;;26.60;25.14
15817;BME280;8009;50.070;8.232;2022-07-17T12:21:53;100844.94;;;26.91;33.64
15817;BME280;8009;50.070;8.232;2022-07-17T12:24:25;100836.28;;;27.07;26.36
15817;BME280;8009;50.070;8.232;2022-07-17T12:26:57;100831.16;;;27.04;27.63
15817;BME280;8009;50.070;8.232;2022-07-17T12:29:27;100833.78;;;27.12;26.76
15817;BME280;8009;50.070;8.232;2022-07-17T12:32:06;100826.81;;;27.23;34.29
15817;BME280;8009;50.070;8.232;2022-07-17T12:34:40;100832.59;;;27.21;33.76
15817;BME280;8009;50.070;8.232;2022-07-17T12:37:10;100822.91;;;27.11;30.93
15817;BME280;8009;50.070;8.232;2022-07-17T12:39:38;100812.13;;;26.94;25.47
15817;BME280;8009;50.070;8.232;2022-07-17T12:42:07;100817.13;;;27.06;28.56
15817;BME280;8009;50.070;8.232;2022-07-17T12:44:37;100815.66;;;26.82;26.99
15817;BME280;8009;50.070;8.232;2022-07-17T12:47:07;100811.41;;;26.79;29.22
15817;BME280;8009;50.070;8.232;2022-07-17T12:49:38;100816.03;;;26.72;39.24
15817;BME280;8009;50.070;8.232;2022-07-17T12:52:09;100805.28;;;26.90;27.17
15817;BME280;8009;50.070;8.232;2022-07-17T12:54:39;100811.41;;;26.86;36.96
15817;BME280;8009;50.070;8.232;2022-07-17T12:57:07;100805.97;;;26.99;27.77
15817;BME280;8009;50.070;8.232;2022-07-17T12:59:36;100806.50;;;26.81;28.89
15817;BME280;8009;50.070;8.232;2022-07-17T13:02:04;100803.09;;;26.79;25.07
15817;BME280;8009;50.070;8.232;2022-07-17T13:04:33;100812.50;;;26.85;26.51
15817;BME280;8009;50.070;8.232;2022-07-17T13:07:04;100810.84;;;26.90;24.80
15817;BME280;8009;50.070;8.232;2022-07-17T13:09:33;100807.16;;;26.83;24.32
15817;BME280;8009;50.070;8.232;2022-07-17T13:12:02;100802.97;;;26.94;37.46
15817;BME280;8009;50.070;8.232;2022-07-17T13:14:32;100793.59;;;26.95;29.12